createdAt,value
2023-03-22T00:00:20.031Z,100.00
2023-03-22T00:05:24.525Z,100.00
2023-03-22T00:10:29.910Z,100.00
2023-03-22T00:15:35.300Z,100.00
2023-03-22T00:20:40.576Z,100.00
2023-03-22T00:25:45.715Z,100.00
2023-03-22T00:30:56.105Z,100.00
2023-03-22T00:36:01.186Z,100.00
2023-03-22T00:41:07.478Z,100.00
2023-03-22T00:46:15.887Z,100.00
2023-03-22T00:51:20.071Z,100.00
2023-03-22T00:56:25.528Z,100.00
2023-03-22T01:01:37.604Z,100.00
2023-03-22T01:06:41.813Z,100.00
2023-03-22T01:11:45.924Z,100.00
2023-03-22T01:16:51.550Z,100.00
2023-03-22T01:21:55.947Z,100.00
2023-03-22T01:27:00.444Z,100.00
2023-03-22T01:32:06.756Z,100.00
2023-03-22T01:37:10.776Z,100.00
2023-03-22T01:42:22.176Z,100.00
2023-03-22T01:47:29.356Z,100.00
2023-03-22T01:52:33.592Z,100.00
2023-03-22T01:57:48.384Z,100.00
2023-03-22T02:03:00.154Z,100.00
2023-03-22T02:08:15.150Z,100.00
2023-03-22T02:13:48.139Z,100.00
2023-03-22T02:19:42.331Z,100.00
2023-03-22T02:25:18.602Z,100.00
2023-03-22T02:30:40.945Z,100.00
2023-03-22T02:35:57.603Z,100.00
2023-03-22T02:41:11.658Z,100.00
2023-03-22T02:46:20.990Z,100.00
2023-03-22T02:51:30.652Z,100.00
2023-03-22T02:56:41.222Z,100.00
2023-03-22T03:01:48.761Z,100.00
2023-03-22T03:06:53.637Z,100.00
2023-03-22T03:11:59.527Z,100.00
2023-03-22T03:17:14.510Z,100.00
2023-03-22T03:22:33.888Z,100.00
2023-03-22T03:27:44.352Z,100.00
2023-03-22T03:32:53.769Z,100.00
2023-03-22T03:38:01.596Z,100.00
2023-03-22T03:43:07.299Z,100.00
2023-03-22T03:48:15.651Z,100.00
2023-03-22T03:53:21.428Z,100.00
2023-03-22T03:58:27.148Z,100.00
2023-03-22T04:03:31.746Z,100.00
2023-03-22T04:08:56.804Z,100.00
2023-03-22T04:14:08.179Z,100.00
2023-03-22T04:19:12.183Z,100.00
2023-03-22T04:24:16.659Z,100.00
2023-03-22T04:29:24.874Z,100.00
2023-03-22T04:34:39.319Z,100.00
2023-03-22T04:39:48.585Z,100.00
2023-03-22T04:45:12.574Z,100.00
2023-03-22T04:50:19.522Z,100.00
2023-03-22T04:55:34.169Z,100.00
2023-03-22T05:00:42.417Z,100.00
2023-03-22T05:05:52.716Z,100.00
2023-03-22T05:11:01.826Z,100.00
2023-03-22T05:16:09.002Z,100.00
2023-03-22T05:21:28.616Z,100.00
2023-03-22T05:26:38.197Z,100.00
2023-03-22T05:31:43.870Z,100.00
2023-03-22T05:36:47.894Z,100.00
2023-03-22T05:41:58.691Z,100.00
2023-03-22T05:47:06.649Z,100.00
2023-03-22T05:52:17.221Z,100.00
2023-03-22T05:57:32.691Z,100.00
2023-03-22T06:02:38.358Z,100.00
2023-03-22T06:07:43.140Z,100.00
2023-03-22T06:12:55.502Z,100.00
2023-03-22T06:18:06.983Z,100.00
2023-03-22T06:23:16.269Z,100.00
2023-03-22T06:28:22.819Z,100.00
2023-03-22T06:33:33.045Z,100.00
2023-03-22T06:38:51.171Z,100.00
2023-03-22T06:43:55.347Z,100.00
2023-03-22T06:49:21.897Z,100.00
2023-03-22T06:54:28.701Z,100.00
2023-03-22T06:59:32.907Z,100.00
2023-03-22T07:04:38.489Z,100.00
2023-03-22T07:09:43.049Z,100.00
2023-03-22T07:14:47.258Z,100.00
2023-03-22T07:20:13.249Z,100.00
2023-03-22T07:25:18.816Z,100.00
2023-03-22T07:30:25.927Z,100.00
2023-03-22T07:35:31.954Z,100.00
2023-03-22T07:40:37.572Z,100.00
2023-03-22T07:45:43.113Z,100.00
2023-03-22T07:51:07.497Z,100.00
2023-03-22T07:56:11.864Z,100.00
2023-03-22T08:01:16.211Z,100.00
2023-03-22T08:06:32.772Z,100.00
2023-03-22T08:11:37.682Z,100.00
2023-03-22T08:16:44.141Z,100.00
2023-03-22T08:21:50.476Z,100.00
2023-03-22T08:27:10.946Z,100.00
2023-03-22T08:32:24.154Z,100.00
2023-03-22T08:37:29.951Z,100.00
2023-03-22T08:42:34.285Z,100.00
2023-03-22T08:47:39.540Z,100.00
2023-03-22T08:52:47.002Z,100.00
2023-03-22T08:57:59.920Z,100.00
2023-03-22T09:03:18.752Z,100.00
2023-03-22T09:08:24.241Z,100.00
2023-03-22T09:13:35.112Z,100.00
2023-03-22T09:18:41.341Z,100.00
2023-03-22T09:23:51.081Z,100.00
2023-03-22T09:28:59.706Z,100.00
2023-03-22T09:34:05.665Z,100.00
2023-03-22T09:39:11.478Z,100.00
2023-03-22T09:44:19.003Z,100.00
2023-03-22T09:49:26.195Z,100.00
2023-03-22T09:54:34.010Z,100.00
2023-03-22T09:59:45.446Z,99.18
2023-03-22T10:04:55.678Z,95.68
2023-03-22T10:10:09.352Z,91.70
2023-03-22T10:15:16.306Z,91.37
2023-03-22T10:20:29.023Z,91.52
2023-03-22T10:25:39.331Z,92.84
2023-03-22T10:30:45.853Z,94.61
2023-03-22T10:35:52.113Z,92.84
2023-03-22T10:40:59.793Z,93.55
2023-03-22T10:46:07.694Z,96.83
2023-03-22T10:51:18.381Z,93.35
2023-03-22T10:56:23.693Z,93.46
2023-03-22T11:01:31.582Z,86.10
2023-03-22T11:06:40.272Z,84.81
2023-03-22T11:11:51.574Z,85.36
2023-03-22T11:16:59.242Z,85.08
2023-03-22T11:22:05.841Z,78.51
2023-03-22T11:27:21.458Z,77.46
2023-03-22T11:32:28.902Z,74.36
2023-03-22T11:37:32.935Z,74.46
2023-03-22T11:42:38.514Z,72.93
2023-03-22T11:47:42.987Z,72.13
2023-03-22T11:52:48.848Z,71.58
2023-03-22T11:57:57.133Z,66.69
2023-03-22T12:03:04.752Z,67.17
2023-03-22T12:08:14.684Z,68.95
2023-03-22T12:13:24.693Z,66.71
2023-03-22T12:18:35.294Z,72.37
2023-03-22T12:23:39.813Z,68.51
2023-03-22T12:28:53.265Z,66.00
2023-03-22T12:33:59.439Z,66.43
2023-03-22T12:39:05.196Z,64.42
2023-03-22T12:44:16.405Z,62.49
2023-03-22T12:49:27.567Z,63.75
2023-03-22T12:54:31.810Z,62.67
2023-03-22T12:59:37.881Z,62.37
2023-03-22T13:04:53.539Z,61.14
2023-03-22T13:09:58.767Z,61.98
2023-03-22T13:15:23.818Z,58.06
2023-03-22T13:20:34.200Z,58.58
2023-03-22T13:25:39.848Z,56.67
2023-03-22T13:30:52.720Z,58.19
2023-03-22T13:35:59.288Z,58.45
2023-03-22T13:41:06.001Z,57.06
2023-03-22T13:46:30.752Z,60.01
2023-03-22T13:51:35.560Z,62.92
2023-03-22T13:56:54.312Z,59.26
2023-03-22T14:02:05.038Z,56.86
2023-03-22T14:07:26.324Z,56.44
2023-03-22T14:12:34.045Z,57.98
2023-03-22T14:17:43.678Z,58.71
